Time;durP1;ratioP1;P1;durP2;ratioP2;P2;SDS_P1;SDS_P2;PMS_P1;PMS_P2;Temp;Humidity;BMP_temperature;BMP_pressure;BME280_temperature;BME280_humidity;BME280_pressure;Samples;Min_cycle;Max_cycle;Signal;HPM_P1;HPM_P2
2021/07/13 00:02:19;;;;;;;;;6.00;5.75;;;;;18.53;71.69;100333.88;4973531;28;45478;-60
2021/07/13 00:04:45;;;;;;;;;6.00;5.00;;;;;18.52;71.32;100328.75;4972510;28;68934;-59
2021/07/13 00:07:10;;;;;;;;;5.00;4.00;;;;;18.50;71.13;100320.97;4972499;28;64568;-59
2021/07/13 00:09:35;;;;;;;;;6.00;5.25;;;;;18.49;71.05;100316.66;4973180;28;45296;-60
2021/07/13 00:12:01;;;;;;;;;5.00;5.00;;;;;18.47;71.10;100310.72;4973396;28;45342;-59
2021/07/13 00:14:27;;;;;;;;;18.25;14.00;;;;;18.46;70.99;100310.88;4973384;28;45335;-60
2021/07/13 00:16:52;;;;;;;;;12.75;10.00;;;;;18.43;71.29;100306.78;4973197;28;45475;-59
2021/07/13 00:19:17;;;;;;;;;17.25;12.25;;;;;18.40;71.32;100293.88;4973152;28;45316;-60
2021/07/13 00:21:43;;;;;;;;;15.00;12.75;;;;;18.37;71.37;100294.25;4973928;28;65289;-60
2021/07/13 00:24:08;;;;;;;;;12.25;8.25;;;;;18.37;71.48;100296.91;4973394;28;45413;-59
2021/07/13 00:26:35;;;;;;;;;9.50;9.25;;;;;18.35;71.57;100301.63;4975155;28;45245;-60
2021/07/13 00:29:00;;;;;;;;;8.25;7.50;;;;;18.34;71.52;100305.28;4976093;28;46113;-60
2021/07/13 00:31:26;;;;;;;;;13.75;8.50;;;;;18.34;71.15;100307.94;4976063;28;46278;-60
2021/07/13 00:33:51;;;;;;;;;8.75;8.00;;;;;18.32;71.53;100302.00;4975903;28;51892;-59
2021/07/13 00:36:16;;;;;;;;;9.25;8.00;;;;;18.32;71.15;100305.47;4976157;28;45312;-60
2021/07/13 00:38:42;;;;;;;;;12.50;9.25;;;;;18.33;71.64;100306.31;4975677;28;54620;-59
2021/07/13 00:41:07;;;;;;;;;10.25;7.50;;;;;18.31;71.61;100316.31;4975291;28;65231;-59
2021/07/13 00:43:32;;;;;;;;;8.00;6.50;;;;;18.30;71.79;100309.34;4975586;28;58301;-59
2021/07/13 00:45:59;;;;;;;;;9.50;8.00;;;;;18.30;71.70;100290.72;4975188;28;67194;-60
2021/07/13 00:48:24;;;;;;;;;8.00;7.25;;;;;18.29;71.49;100283.75;4975840;28;45989;-59
2021/07/13 00:50:51;;;;;;;;;7.00;7.00;;;;;18.28;71.33;100282.13;4974737;28;45378;-59
2021/07/13 00:53:16;;;;;;;;;12.25;9.25;;;;;18.27;71.65;100275.16;4976213;28;45359;-59
2021/07/13 00:55:41;;;;;;;;;7.25;7.00;;;;;18.29;71.53;100281.09;4957588;28;70464;-60
2021/07/13 00:58:07;;;;;;;;;9.50;7.50;;;;;18.29;71.90;100281.09;4975506;28;55227;-59
2021/07/13 01:00:33;;;;;;;;;10.25;8.00;;;;;18.28;71.73;100274.13;4975881;28;45391;-59
2021/07/13 01:03:01;;;;;;;;;8.00;7.00;;;;;18.24;71.44;100274.53;4976252;28;45522;-60
2021/07/13 01:05:29;;;;;;;;;10.00;8.75;;;;;18.24;71.73;100271.88;4974707;28;45614;-60
2021/07/13 01:08:35;;;;;;;;;9.00;9.00;;;;;18.24;71.45;100274.53;4975586;28;45451;-60
2021/07/13 01:11:11;;;;;;;;;8.50;8.50;;;;;18.24;71.78;100274.53;5005408;28;45761;-59
2021/07/13 01:14:03;;;;;;;;;10.25;9.50;;;;;18.23;71.42;100275.53;4975908;28;45304;-59
2021/07/13 01:16:36;;;;;;;;;10.75;9.00;;;;;18.23;71.42;100269.41;4974532;28;45439;-58
2021/07/13 01:19:13;;;;;;;;;9.75;8.50;;;;;18.22;71.42;100281.06;4975546;28;46147;-59
2021/07/13 01:21:42;;;;;;;;;10.00;9.25;;;;;18.20;71.53;100297.19;4959013;28;45386;-60
2021/07/13 01:24:36;;;;;;;;;12.00;10.50;;;;;18.18;71.47;100296.56;4974384;28;45435;-59
2021/07/13 01:27:28;;;;;;;;;9.75;8.00;;;;;18.18;71.71;100283.28;4975786;28;45363;-60
2021/07/13 01:29:54;;;;;;;;;13.00;13.00;;;;;18.17;71.61;100267.53;4976999;28;45453;-60
2021/07/13 01:32:20;;;;;;;;;15.25;13.50;;;;;18.18;71.58;100264.66;4958013;28;45448;-59
2021/07/13 01:34:53;;;;;;;;;15.00;13.00;;;;;18.17;71.22;100255.03;4975675;28;45394;-59
2021/07/13 01:37:19;;;;;;;;;14.75;13.00;;;;;18.16;71.16;100265.88;4974138;28;45318;-61
2021/07/13 01:39:44;;;;;;;;;16.75;14.50;;;;;18.13;71.51;100272.38;4941613;28;45373;-60
2021/07/13 01:42:10;;;;;;;;;15.25;12.25;;;;;18.11;71.26;100287.72;4957247;28;62894;-59
2021/07/13 01:44:36;;;;;;;;;19.75;13.50;;;;;18.08;71.52;100293.41;4974284;28;45363;-59
2021/07/13 01:47:02;;;;;;;;;17.25;13.25;;;;;18.08;71.06;100286.28;4958100;28;45412;-59
2021/07/13 01:49:27;;;;;;;;;14.00;10.00;;;;;18.07;71.48;100289.09;4974938;28;47266;-59
2021/07/13 01:51:53;;;;;;;;;15.50;11.50;;;;;18.08;71.91;100285.44;4957761;28;45447;-59
2021/07/13 01:54:19;;;;;;;;;19.75;15.50;;;;;18.09;71.83;100281.75;4958029;28;45387;-59
2021/07/13 01:56:45;;;;;;;;;15.75;14.00;;;;;18.09;71.53;100285.25;4975388;28;45662;-59
2021/07/13 01:59:12;;;;;;;;;16.25;15.00;;;;;18.11;71.48;100292.22;4957678;28;45371;-59
2021/07/13 02:01:38;;;;;;;;;16.75;13.50;;;;;18.09;71.98;100293.22;4957650;28;49973;-60
2021/07/13 02:04:03;;;;;;;;;18.00;17.25;;;;;18.11;71.83;100286.91;4972976;28;65451;-59
2021/07/13 02:06:29;;;;;;;;;15.50;14.50;;;;;18.11;71.89;100273.59;4975247;28;45618;-59
2021/07/13 02:09:04;;;;;;;;;17.25;15.50;;;;;18.10;71.73;100286.06;4973771;28;45406;-60
2021/07/13 02:11:29;;;;;;;;;18.00;15.75;;;;;18.10;71.61;100286.06;4973765;28;45499;-59
2021/07/13 02:13:55;;;;;;;;;20.50;16.50;;;;;18.11;71.50;100281.59;4972978;28;66087;-59
2021/07/13 02:16:20;;;;;;;;;18.00;15.75;;;;;18.09;71.53;100277.28;4974960;28;45512;-59
2021/07/13 02:18:47;;;;;;;;;19.00;17.00;;;;;18.11;71.59;100287.72;4974015;28;70094;-59
2021/07/13 02:21:14;;;;;;;;;19.00;19.00;;;;;18.09;71.49;100290.56;4974648;28;45853;-59
2021/07/13 02:23:40;;;;;;;;;15.25;15.25;;;;;18.11;71.66;100293.03;4975088;28;45279;-59
2021/07/13 02:26:05;;;;;;;;;21.25;16.50;;;;;18.09;71.89;100301.22;4974928;28;45196;-59
2021/07/13 02:28:35;;;;;;;;;25.75;17.00;;;;;18.06;72.30;100293.63;4957296;28;45210;-59
2021/07/13 02:31:11;;;;;;;;;17.75;16.25;;;;;18.06;71.98;100285.63;4973355;28;45914;-60
2021/07/13 02:33:48;;;;;;;;;24.25;19.75;;;;;18.07;71.55;100284.63;4973776;28;45348;-60
2021/07/13 02:36:18;;;;;;;;;17.75;16.25;;;;;18.07;71.51;100283.78;4974925;28;45565;-60
2021/07/13 02:38:45;;;;;;;;;20.25;19.50;;;;;18.06;71.49;100287.47;4974559;28;47060;-59
2021/07/13 02:41:10;;;;;;;;;18.50;17.75;;;;;18.07;71.14;100281.13;4957179;28;45755;-60
2021/07/13 02:43:36;;;;;;;;;23.50;15.75;;;;;18.07;71.18;100271.34;4956590;28;63108;-59
2021/07/13 02:46:01;;;;;;;;;22.75;20.50;;;;;18.07;71.01;100266.00;4957342;28;45356;-59
2021/07/13 02:48:27;;;;;;;;;20.25;17.75;;;;;18.08;71.42;100264.16;4956643;28;47080;-59
2021/07/13 02:50:53;;;;;;;;;21.00;17.75;;;;;18.07;70.85;100266.00;4956424;28;61942;-60
2021/07/13 02:53:18;;;;;;;;;17.50;17.25;;;;;18.07;70.71;100259.84;4973647;28;45276;-59
2021/07/13 02:55:44;;;;;;;;;23.75;20.50;;;;;18.06;70.62;100261.72;4972509;28;69788;-59
2021/07/13 02:58:09;;;;;;;;;19.75;18.25;;;;;18.05;70.84;100264.53;4973394;28;74611;-60
2021/07/13 03:00:34;;;;;;;;;20.50;18.25;;;;;18.04;70.72;100268.22;4973485;28;69100;-59
2021/07/13 03:03:00;;;;;;;;;18.00;17.25;;;;;18.02;71.06;100265.75;4974386;28;47703;-59
2021/07/13 03:05:25;;;;;;;;;17.00;16.00;;;;;18.01;71.20;100264.13;4973729;28;59780;-60
2021/07/13 03:07:51;;;;;;;;;19.00;17.50;;;;;18.00;71.49;100272.31;4956950;28;45523;-60
2021/07/13 03:10:20;;;;;;;;;18.00;15.25;;;;;17.99;71.84;100283.91;4972184;28;65581;-59
2021/07/13 03:12:46;;;;;;;;;15.50;15.00;;;;;17.98;71.70;100285.75;4973226;28;45380;-60
2021/07/13 03:15:12;;;;;;;;;17.50;12.25;;;;;17.99;71.87;100284.75;4974193;28;45528;-60
2021/07/13 03:17:37;;;;;;;;;13.75;13.75;;;;;17.99;71.92;100289.22;4974002;28;45899;-59
2021/07/13 03:20:03;;;;;;;;;17.75;15.00;;;;;17.99;71.89;100291.88;4973826;28;45437;-60
2021/07/13 03:22:31;;;;;;;;;16.00;14.50;;;;;17.97;71.75;100288.59;4972904;28;45216;-59
2021/07/13 03:24:58;;;;;;;;;16.75;13.50;;;;;17.98;71.65;100285.75;4958088;28;45231;-59
2021/07/13 03:27:23;;;;;;;;;15.75;13.00;;;;;17.97;71.98;100272.66;4972552;28;47748;-60
2021/07/13 03:29:52;;;;;;;;;16.25;13.25;;;;;17.97;71.60;100270.00;4955693;28;67065;-59
2021/07/13 03:32:18;;;;;;;;;13.00;12.50;;;;;17.95;71.83;100257.72;4956641;28;45431;-59
2021/07/13 03:34:43;;;;;;;;;21.25;14.50;;;;;17.93;71.71;100259.75;4972817;28;45248;-60
2021/07/13 03:37:09;;;;;;;;;15.00;14.00;;;;;17.94;71.76;100269.38;4956409;28;45310;-59
2021/07/13 03:39:34;;;;;;;;;15.25;12.25;;;;;17.93;72.01;100265.06;4971606;28;71413;-60
2021/07/13 03:42:00;;;;;;;;;15.50;14.25;;;;;17.94;72.13;100271.19;4956575;28;45341;-59
2021/07/13 03:44:25;;;;;;;;;16.00;15.00;;;;;17.94;71.88;100269.38;4955841;28;59222;-60
2021/07/13 03:46:51;;;;;;;;;17.25;15.25;;;;;17.94;71.58;100264.03;4972378;28;46517;-60
2021/07/13 03:49:16;;;;;;;;;15.25;12.75;;;;;17.95;71.80;100267.50;4972735;28;68060;-59
2021/07/13 03:51:45;;;;;;;;;13.00;12.50;;;;;17.95;71.81;100265.69;4972766;28;69364;-60
2021/07/13 03:54:12;;;;;;;;;16.25;14.75;;;;;17.95;71.52;100259.53;4973689;28;45431;-59
2021/07/13 03:56:38;;;;;;;;;15.25;12.75;;;;;17.98;71.90;100268.97;4973576;28;45430;-59
2021/07/13 03:59:04;;;;;;;;;14.50;13.50;;;;;17.97;71.90;100264.69;4973660;28;45370;-59
2021/07/13 04:01:29;;;;;;;;;14.50;11.50;;;;;17.97;71.95;100267.34;4976454;28;46832;-59
2021/07/13 04:03:54;;;;;;;;;12.50;12.00;;;;;17.95;71.80;100276.31;4976624;28;45489;-59
2021/07/13 04:06:20;;;;;;;;;11.25;10.00;;;;;17.95;72.49;100264.84;4976119;28;54622;-60
2021/07/13 04:08:45;;;;;;;;;12.25;11.25;;;;;17.94;72.13;100264.03;4974266;28;70075;-60
2021/07/13 04:11:10;;;;;;;;;18.00;16.75;;;;;17.95;72.20;100267.50;4975197;28;45248;-60
2021/07/13 04:13:36;;;;;;;;;13.25;13.25;;;;;17.95;72.54;100265.69;4975716;28;62724;-59
2021/07/13 04:16:01;;;;;;;;;12.00;11.50;;;;;17.97;72.45;100272.66;4975455;28;71199;-59
2021/07/13 04:18:27;;;;;;;;;13.25;11.75;;;;;17.97;72.32;100273.47;4976233;28;49417;-60
2021/07/13 04:20:52;;;;;;;;;14.25;13.00;;;;;17.98;72.42;100274.28;4977801;28;45530;-59
2021/07/13 04:23:17;;;;;;;;;13.00;11.50;;;;;18.00;72.17;100272.31;4976229;28;46329;-59
2021/07/13 04:25:45;;;;;;;;;15.25;13.50;;;;;17.99;72.06;100275.94;4975934;28;45326;-60
2021/07/13 04:28:10;;;;;;;;;10.75;10.75;;;;;17.99;71.74;100268.81;4976037;28;45285;-59
2021/07/13 04:30:36;;;;;;;;;14.25;12.75;;;;;18.01;71.88;100263.31;4976201;28;45865;-59
2021/07/13 04:33:01;;;;;;;;;13.00;11.50;;;;;18.02;71.70;100259.59;4977059;28;45600;-60
2021/07/13 04:35:27;;;;;;;;;16.25;13.50;;;;;18.01;71.92;100266.78;4976078;28;46155;-60
2021/07/13 04:37:52;;;;;;;;;11.50;10.50;;;;;18.01;71.64;100269.44;4975350;28;57019;-60
2021/07/13 04:40:17;;;;;;;;;10.00;9.50;;;;;18.01;72.08;100274.75;4975473;28;62934;-59
2021/07/13 04:42:43;;;;;;;;;13.00;10.25;;;;;18.00;72.15;100274.97;4975329;28;64398;-59
2021/07/13 04:45:09;;;;;;;;;14.75;13.50;;;;;18.01;72.26;100279.25;4975590;28;46102;-60
2021/07/13 04:47:34;;;;;;;;;15.75;14.00;;;;;18.02;71.76;100270.25;4975998;28;45756;-59
2021/07/13 04:50:00;;;;;;;;;13.75;12.75;;;;;18.02;71.84;100270.25;4976115;28;45398;-59
2021/07/13 04:52:25;;;;;;;;;14.00;12.25;;;;;18.00;71.80;100267.78;4975132;28;66580;-59
2021/07/13 04:54:50;;;;;;;;;12.50;11.00;;;;;18.03;71.98;100274.53;4975840;28;45965;-59
2021/07/13 04:57:16;;;;;;;;;15.25;12.50;;;;;18.04;71.67;100273.53;4975409;28;56434;-60
2021/07/13 04:59:41;;;;;;;;;17.50;13.50;;;;;18.02;71.51;100271.09;4976006;28;45681;-60
2021/07/13 05:02:06;;;;;;;;;15.75;12.50;;;;;18.04;71.54;100270.88;4975055;28;65806;-59
2021/07/13 05:04:32;;;;;;;;;14.25;13.25;;;;;18.04;71.62;100265.56;4976538;28;68289;-59
2021/07/13 05:06:57;;;;;;;;;12.75;11.50;;;;;18.06;71.59;100272.34;4975011;28;66004;-60
2021/07/13 05:09:23;;;;;;;;;14.50;10.25;;;;;18.06;71.69;100267.03;4975745;28;45290;-59
2021/07/13 05:11:48;;;;;;;;;17.75;14.00;;;;;18.06;71.36;100271.50;4975459;28;45405;-60
2021/07/13 05:14:14;;;;;;;;;13.75;13.00;;;;;18.06;71.47;100275.00;4977514;27;46102;-60
2021/07/13 05:16:39;;;;;;;;;15.00;12.25;;;;;18.06;71.88;100277.66;4975579;28;45322;-60
2021/07/13 05:19:06;;;;;;;;;15.75;11.75;;;;;18.05;72.01;100280.50;4975162;28;60017;-60
2021/07/13 05:21:31;;;;;;;;;14.00;11.25;;;;;18.05;72.04;100285.81;4975425;28;45546;-59
2021/07/13 05:23:57;;;;;;;;;14.00;13.25;;;;;18.07;71.68;100284.63;4975511;28;45334;-59
2021/07/13 05:26:22;;;;;;;;;15.50;14.75;;;;;18.07;71.78;100289.09;4974647;28;69173;-59
2021/07/13 05:28:49;;;;;;;;;16.00;13.75;;;;;18.08;71.77;100288.09;4974927;28;58817;-59
2021/07/13 05:31:15;;;;;;;;;15.25;15.25;;;;;18.09;71.69;100289.75;4974466;28;45374;-60
2021/07/13 05:33:40;;;;;;;;;16.00;12.00;;;;;18.11;71.50;100298.34;4975501;28;46813;-59
2021/07/13 05:36:05;;;;;;;;;18.25;15.25;;;;;18.12;71.94;100302.66;4975361;28;45335;-60
2021/07/13 05:38:31;;;;;;;;;15.50;14.50;;;;;18.12;72.17;100302.66;4974503;28;63012;-59
2021/07/13 05:40:56;;;;;;;;;18.75;14.25;;;;;18.13;72.21;100314.94;4974893;28;53613;-59
2021/07/13 05:43:22;;;;;;;;;17.00;13.75;;;;;18.12;72.08;100307.97;4974285;28;68895;-59
2021/07/13 05:45:47;;;;;;;;;16.75;13.00;;;;;18.12;72.53;100307.97;4975161;28;45267;-59
2021/07/13 05:48:12;;;;;;;;;16.25;14.75;;;;;18.12;72.56;100318.59;4974562;28;60987;-59
2021/07/13 05:50:38;;;;;;;;;17.00;15.25;;;;;18.13;72.56;100317.59;4975439;28;45345;-60
2021/07/13 05:53:03;;;;;;;;;16.00;13.50;;;;;18.13;72.56;100309.63;4975071;28;45822;-59
2021/07/13 05:55:29;;;;;;;;;14.50;12.75;;;;;18.14;72.39;100319.22;4975037;28;45320;-60
2021/07/13 05:57:54;;;;;;;;;16.00;13.75;;;;;18.15;72.53;100314.75;4975186;28;45337;-59
2021/07/13 06:00:20;;;;;;;;;14.75;13.25;;;;;18.17;72.42;100304.75;4974500;28;64066;-60
2021/07/13 06:02:45;;;;;;;;;14.00;12.50;;;;;18.16;72.67;100305.75;4973651;28;46118;-60
2021/07/13 06:05:11;;;;;;;;;20.75;15.75;;;;;18.17;72.45;100299.44;4973957;28;69016;-60
2021/07/13 06:07:43;;;;;;;;;17.00;13.00;;;;;18.17;72.06;100300.25;4974888;28;45505;-59
2021/07/13 06:10:09;;;;;;;;;17.75;16.00;;;;;18.18;72.24;100295.75;4974945;28;45388;-59
2021/07/13 06:12:34;;;;;;;;;18.75;15.00;;;;;18.18;72.13;100299.22;4974728;28;45489;-59
2021/07/13 06:14:59;;;;;;;;;15.75;14.25;;;;;18.18;71.90;100293.91;4974066;28;62331;-59
2021/07/13 06:17:25;;;;;;;;;18.50;16.75;;;;;18.20;71.95;100296.38;4974042;28;63400;-60
2021/07/13 06:19:50;;;;;;;;;14.25;13.25;;;;;18.21;72.01;100306.00;4974059;28;63441;-59
2021/07/13 06:22:15;;;;;;;;;22.75;15.00;;;;;18.19;72.30;100298.22;4973426;28;45469;-59
2021/07/13 06:24:41;;;;;;;;;16.25;15.75;;;;;18.18;72.17;100299.22;4973873;28;65665;-60
2021/07/13 06:27:06;;;;;;;;;17.00;14.00;;;;;18.19;72.01;100300.88;4974933;28;45709;-59
2021/07/13 06:29:32;;;;;;;;;15.75;14.50;;;;;18.20;72.19;100299.06;4974274;28;58148;-60
2021/07/13 06:31:57;;;;;;;;;16.50;14.25;;;;;18.20;72.25;100304.38;4973897;28;68483;-59
2021/07/13 06:34:22;;;;;;;;;16.75;13.00;;;;;18.21;72.12;100303.34;4973773;28;67269;-59
2021/07/13 06:36:48;;;;;;;;;15.50;15.25;;;;;18.22;72.41;100307.66;4974118;28;57830;-59
2021/07/13 06:39:14;;;;;;;;;15.00;15.00;;;;;18.21;72.09;100298.84;4974003;28;52894;-59
2021/07/13 06:41:39;;;;;;;;;17.75;15.50;;;;;18.22;72.05;100302.34;4974407;28;45931;-59
2021/07/13 06:44:05;;;;;;;;;18.75;17.00;;;;;18.23;71.97;100293.34;4973422;28;68695;-59
2021/07/13 06:46:32;;;;;;;;;18.25;14.50;;;;;18.22;72.31;100292.50;4974685;28;45426;-59
2021/07/13 06:48:57;;;;;;;;;17.75;15.25;;;;;18.21;72.25;100293.53;4974539;28;45490;-58
2021/07/13 06:51:23;;;;;;;;;17.75;16.00;;;;;18.20;72.18;100297.19;4974335;28;45989;-59
2021/07/13 06:53:48;;;;;;;;;18.25;16.75;;;;;18.20;72.09;100299.84;4974356;28;45406;-60
2021/07/13 06:56:15;;;;;;;;;18.50;16.25;;;;;18.21;72.50;100293.53;4973691;28;58930;-60
2021/07/13 06:58:40;;;;;;;;;15.00;13.50;;;;;18.21;72.57;100296.19;4974091;28;45441;-59
2021/07/13 07:01:06;;;;;;;;;18.00;17.00;;;;;18.22;72.33;100297.84;4973200;28;71934;-60
2021/07/13 07:03:31;;;;;;;;;21.50;17.50;;;;;18.24;72.24;100301.13;4973317;28;69982;-59
2021/07/13 07:05:57;;;;;;;;;17.25;15.50;;;;;18.24;72.40;100290.47;4973621;28;59674;-59
2021/07/13 07:08:22;;;;;;;;;19.00;16.75;;;;;18.24;72.32;100293.13;4973353;28;65153;-59
2021/07/13 07:10:47;;;;;;;;;19.75;18.00;;;;;18.26;72.19;100292.13;4973903;28;45378;-59
2021/07/13 07:13:13;;;;;;;;;21.00;15.50;;;;;18.26;72.59;100287.66;4973213;28;66429;-60
2021/07/13 07:15:38;;;;;;;;;17.25;16.50;;;;;18.27;72.25;100283.13;4973338;28;62145;-60
2021/07/13 07:18:03;;;;;;;;;22.75;18.25;;;;;18.28;72.19;100269.63;4973499;28;52829;-59
2021/07/13 07:20:29;;;;;;;;;21.75;18.25;;;;;18.29;72.04;100265.97;4972957;28;61426;-60
2021/07/13 07:22:55;;;;;;;;;19.75;15.75;;;;;18.30;72.50;100256.97;4974010;28;45166;-59
2021/07/13 07:25:20;;;;;;;;;18.75;16.25;;;;;18.31;72.22;100263.13;4974148;28;45223;-60
2021/07/13 07:27:46;;;;;;;;;17.00;14.75;;;;;18.30;72.65;100277.44;4974026;28;45216;-59
2021/07/13 07:30:12;;;;;;;;;17.25;16.25;;;;;18.28;72.74;100285.59;4973655;28;46587;-59
2021/07/13 07:32:38;;;;;;;;;18.50;15.75;;;;;18.32;72.59;100286.03;4972475;28;45406;-59
2021/07/13 07:35:04;;;;;;;;;21.25;17.75;;;;;18.32;72.50;100291.34;4976489;28;45488;-59
2021/07/13 07:37:29;;;;;;;;;19.75;17.00;;;;;18.32;72.61;100296.69;4976571;28;45298;-59
2021/07/13 07:39:55;;;;;;;;;22.75;16.50;;;;;18.34;72.64;100307.94;4975515;28;72051;-60
2021/07/13 07:42:20;;;;;;;;;17.75;14.75;;;;;18.34;72.96;100308.75;5041814;28;70010;-59
2021/07/13 07:44:46;;;;;;;;;15.00;14.50;;;;;18.36;73.10;100303.25;5051345;27;55465;-60
2021/07/13 07:47:11;;;;;;;;;15.75;13.75;;;;;18.38;72.69;100311.88;5049825;27;70661;-59
2021/07/13 07:49:36;;;;;;;;;16.50;13.50;;;;;18.38;72.78;100309.22;5072414;27;73318;-59
2021/07/13 07:52:02;;;;;;;;;17.00;14.75;;;;;18.39;73.19;100303.69;4990902;27;68861;-59
2021/07/13 07:54:28;;;;;;;;;16.50;14.25;;;;;18.41;72.74;100306.16;4996611;28;45537;-59
2021/07/13 07:56:53;;;;;;;;;18.50;14.25;;;;;18.44;72.59;100313.75;5019536;28;69978;-60
2021/07/13 07:59:20;;;;;;;;;14.50;11.50;;;;;18.47;72.78;100315.19;4988001;28;72351;-59
2021/07/13 08:01:46;;;;;;;;;13.25;12.25;;;;;18.51;72.61;100316.47;4986301;28;45461;-60
2021/07/13 08:04:12;;;;;;;;;10.25;8.75;;;;;18.50;72.74;100318.31;4986884;28;45194;-59
2021/07/13 08:06:37;;;;;;;;;10.75;10.25;;;;;18.53;72.53;100322.41;4985155;28;69001;-60
2021/07/13 08:09:03;;;;;;;;;13.00;10.50;;;;;18.53;72.05;100323.25;4985304;28;45445;-60
2021/07/13 08:11:28;;;;;;;;;15.00;12.75;;;;;18.54;72.40;100324.06;4997297;28;45384;-59
2021/07/13 08:13:55;;;;;;;;;11.75;11.25;;;;;18.57;72.25;100325.50;4992584;28;45361;-59
2021/07/13 08:16:20;;;;;;;;;15.25;10.25;;;;;18.59;72.34;100315.47;5019265;28;46005;-59
2021/07/13 08:18:46;;;;;;;;;14.00;11.25;;;;;18.61;72.35;100326.75;5014060;28;72043;-59
2021/07/13 08:21:11;;;;;;;;;13.50;11.25;;;;;18.63;71.82;100327.38;5011004;28;45343;-60
2021/07/13 08:23:37;;;;;;;;;10.75;10.00;;;;;18.64;72.29;100332.50;5012917;27;62567;-59
2021/07/13 08:26:02;;;;;;;;;11.25;10.50;;;;;18.66;72.46;100329.66;5003520;27;45578;-60
2021/07/13 08:28:27;;;;;;;;;11.50;10.75;;;;;18.66;72.69;100330.47;5013610;27;70969;-59
2021/07/13 08:30:53;;;;;;;;;13.00;10.25;;;;;18.68;72.39;100328.44;5003225;28;53735;-60
2021/07/13 08:33:18;;;;;;;;;15.50;11.25;;;;;18.69;72.06;100323.94;5057642;27;64437;-59
2021/07/13 08:35:43;;;;;;;;;9.75;8.00;;;;;18.70;72.41;100320.25;5047782;27;66561;-60
2021/07/13 08:38:09;;;;;;;;;10.00;10.00;;;;;18.72;71.91;100322.75;5070220;27;45997;-59
2021/07/13 08:40:34;;;;;;;;;16.00;13.75;;;;;18.72;72.10;100328.06;5044018;27;72721;-59
2021/07/13 08:42:59;;;;;;;;;14.25;10.25;;;;;18.69;72.42;100323.94;4979296;28;68216;-60
2021/07/13 08:45:26;;;;;;;;;11.00;10.00;;;;;18.70;72.84;100328.25;5052397;28;61208;-59
2021/07/13 08:47:52;;;;;;;;;11.75;8.75;;;;;18.73;72.35;100335.03;4978905;28;70400;-60
2021/07/13 08:50:19;;;;;;;;;11.50;8.00;;;;;18.73;72.58;100330.53;4982728;28;45723;-59
2021/07/13 08:52:44;;;;;;;;;11.25;11.00;;;;;18.74;72.29;100326.84;4994974;27;45504;-60
2021/07/13 08:55:10;;;;;;;;;10.50;10.25;;;;;18.78;72.63;100320.13;4995915;27;45593;-59
2021/07/13 08:57:39;;;;;;;;;12.25;11.00;;;;;18.81;72.32;100311.72;4993011;28;46201;-60
2021/07/13 09:00:15;;;;;;;;;13.75;11.00;;;;;18.83;72.59;100320.34;5013517;28;45969;-60
2021/07/13 09:03:06;;;;;;;;;11.25;9.75;;;;;18.88;72.41;100321.59;5000024;28;45507;-60
2021/07/13 09:05:56;;;;;;;;;9.25;6.75;;;;;18.91;72.96;100323.88;4995391;27;45490;-59
2021/07/13 09:08:25;;;;;;;;;13.50;13.50;;;;;18.95;72.81;100330.44;5004222;28;45486;-59
2021/07/13 09:11:17;;;;;;;;;11.75;10.50;;;;;18.97;72.59;100331.91;5001911;28;45426;-60
2021/07/13 09:13:43;;;;;;;;;12.00;9.75;;;;;19.00;72.73;100332.53;5012832;28;45527;-60
2021/07/13 09:16:22;;;;;;;;;14.50;14.50;;;;;19.03;72.86;100337.47;5018429;27;45480;-59
2021/07/13 09:18:50;;;;;;;;;17.00;11.00;;;;;19.07;72.09;100339.56;5004055;28;47310;-59
2021/07/13 09:21:21;;;;;;;;;12.50;11.00;;;;;19.09;72.07;100345.50;5002290;28;45246;-59
2021/07/13 09:24:05;;;;;;;;;1.00;0.00;;;;;19.09;71.90;100347.34;4992597;28;45540;-60
2021/07/13 09:26:56;;;;;;;;;13.25;12.25;;;;;19.07;71.66;100355.53;4993504;28;45445;-60
2021/07/13 09:29:28;;;;;;;;;13.25;12.25;;;;;19.06;72.00;100353.91;4994364;28;47265;-59
2021/07/13 09:31:54;;;;;;;;;14.50;11.50;;;;;19.04;71.55;100358.59;4994535;28;45981;-59
2021/07/13 09:34:19;;;;;;;;;14.25;11.25;;;;;19.02;71.97;100352.66;5016362;27;45477;-60
2021/07/13 09:36:52;;;;;;;;;12.50;10.50;;;;;19.01;72.37;100352.81;5028747;28;45224;-59
2021/07/13 09:39:24;;;;;;;;;15.00;12.00;;;;;18.99;71.98;100361.03;5018931;27;45460;-60
2021/07/13 09:41:53;;;;;;;;;14.50;11.00;;;;;18.97;72.64;100368.38;5023063;28;45830;-59
2021/07/13 09:44:25;;;;;;;;;14.00;10.25;;;;;18.93;72.56;100361.78;5040193;28;45584;-59
2021/07/13 09:46:51;;;;;;;;;10.00;7.75;;;;;18.94;72.58;100361.56;5044434;28;45595;-59
2021/07/13 09:49:20;;;;;;;;;11.25;10.00;;;;;18.94;72.49;100363.41;5049318;28;45991;-60
2021/07/13 09:52:02;;;;;;;;;14.25;10.75;;;;;18.95;72.66;100368.53;5042806;27;45234;-59
2021/07/13 09:54:41;;;;;;;;;13.00;12.50;;;;;18.96;73.13;100364.06;5034597;28;45505;-60
2021/07/13 09:57:16;;;;;;;;;10.00;9.75;;;;;18.98;72.79;100368.16;5042655;28;45165;-59
2021/07/13 09:59:47;;;;;;;;;8.00;7.25;;;;;19.00;72.77;100367.16;5027691;27;45540;-60
2021/07/13 10:02:12;;;;;;;;;10.00;9.25;;;;;19.02;73.60;100365.97;5019783;28;45288;-59
2021/07/13 10:04:39;;;;;;;;;11.50;9.00;;;;;19.05;73.21;100364.72;5017331;27;45338;-60
2021/07/13 10:07:12;;;;;;;;;9.50;8.50;;;;;19.05;73.26;100362.91;5065294;27;45571;-60
2021/07/13 10:09:42;;;;;;;;;10.50;7.00;;;;;19.09;73.50;100371.31;5067979;27;46236;-59
2021/07/13 10:12:09;;;;;;;;;8.75;8.25;;;;;19.15;72.85;100362.53;5038283;27;45964;-60
2021/07/13 10:14:37;;;;;;;;;9.50;9.50;;;;;19.20;73.02;100367.25;5070601;28;45514;-59
2021/07/13 10:17:02;;;;;;;;;13.25;12.75;;;;;19.23;72.48;100373.03;5017115;28;45550;-60
2021/07/13 10:19:28;;;;;;;;;14.25;10.00;;;;;19.26;72.71;100369.13;4980409;28;47047;-59
2021/07/13 10:21:54;;;;;;;;;9.25;8.75;;;;;19.27;72.65;100376.09;4973128;28;45512;-60
2021/07/13 10:24:25;;;;;;;;;11.25;8.00;;;;;19.27;72.47;100379.59;4974868;28;45873;-60
2021/07/13 10:26:52;;;;;;;;;8.25;7.75;;;;;19.29;72.34;100387.38;5026381;27;45677;-60
2021/07/13 10:29:32;;;;;;;;;8.75;8.50;;;;;19.31;72.56;100368.56;5000463;28;46279;-60
2021/07/13 10:32:19;;;;;;;;;8.00;6.75;;;;;19.34;72.34;100370.84;4984270;28;46518;-60
2021/07/13 10:34:52;;;;;;;;;9.00;7.75;;;;;19.38;72.46;100377.38;5020969;28;45535;-60
2021/07/13 10:37:27;;;;;;;;;10.25;7.00;;;;;19.39;72.56;100374.53;5039138;28;45359;-60
2021/07/13 10:39:54;;;;;;;;;6.75;5.75;;;;;19.41;71.91;100363.66;5042659;28;46071;-60
2021/07/13 10:42:40;;;;;;;;;8.50;7.25;;;;;19.42;72.40;100360.81;5042898;28;45423;-60
2021/07/13 10:45:18;;;;;;;;;6.75;6.50;;;;;19.48;71.52;100374.38;5029942;27;45613;-60
2021/07/13 10:48:02;;;;;;;;;7.00;7.00;;;;;19.49;71.70;100365.34;5041137;28;45457;-60
2021/07/13 10:50:28;;;;;;;;;10.00;8.50;;;;;19.51;72.29;100356.13;5020031;28;45430;-60
2021/07/13 10:52:54;;;;;;;;;9.00;7.00;;;;;19.54;72.66;100352.25;5022611;28;45456;-60
2021/07/13 10:55:32;;;;;;;;;6.75;6.75;;;;;19.57;73.08;100354.53;5035812;28;45453;-60
2021/07/13 10:58:10;;;;;;;;;8.25;7.75;;;;;19.58;72.93;100351.66;5008470;28;45220;-60
2021/07/13 11:00:47;;;;;;;;;8.00;6.75;;;;;19.62;72.69;100357.38;5006628;28;45394;-60
2021/07/13 11:03:37;;;;;;;;;7.25;7.00;;;;;19.66;72.62;100353.28;4974994;28;45419;-60
2021/07/13 11:06:09;;;;;;;;;7.25;5.50;;;;;19.68;73.23;100353.91;4983484;28;45317;-60
2021/07/13 11:11:14;;;;;;;;;5.25;5.25;;;;;19.75;71.81;100355.78;4990656;28;45524;-60
2021/07/13 11:13:39;;;;;;;;;7.00;6.50;;;;;19.79;71.52;100357.03;4983966;28;45473;-60
2021/07/13 11:16:04;;;;;;;;;7.00;6.00;;;;;19.81;71.73;100363.81;4991451;28;45495;-59
2021/07/13 11:18:31;;;;;;;;;6.50;6.50;;;;;19.81;72.48;100369.16;4978581;28;63283;-60